sensor_id;sensor_type;location;lat;lon;timestamp;pressure;altitude;pressure_sealevel;temperature;humidity
6453;BME280;3259;51.080;13.712;2023-05-17T00:01:52;100643.50;;;25.07;30.73
6453;BME280;3259;51.080;13.712;2023-05-17T00:04:42;100649.50;;;25.09;30.92
6453;BME280;3259;51.080;13.712;2023-05-17T00:07:33;100650.72;;;25.06;31.03
6453;BME280;3259;51.080;13.712;2023-05-17T00:10:22;100650.47;;;25.01;30.97
6453;BME280;3259;51.080;13.712;2023-05-17T00:13:11;100648.63;;;25.02;30.99
6453;BME280;3259;51.080;13.712;2023-05-17T00:15:59;100649.81;;;24.99;30.94
6453;BME280;3259;51.080;13.712;2023-05-17T00:18:48;100648.22;;;25.05;30.86
6453;BME280;3259;51.080;13.712;2023-05-17T00:21:37;100653.94;;;25.02;30.89
6453;BME280;3259;51.080;13.712;2023-05-17T00:24:27;100657.00;;;24.99;30.39
6453;BME280;3259;51.080;13.712;2023-05-17T00:27:17;100653.56;;;25.05;30.53
6453;BME280;3259;51.080;13.712;2023-05-17T00:30:08;100652.31;;;25.01;30.57
6453;BME280;3259;51.080;13.712;2023-05-17T00:32:57;100648.63;;;25.02;30.46
6453;BME280;3259;51.080;13.712;2023-05-17T00:35:46;100653.72;;;24.97;30.56
6453;BME280;3259;51.080;13.712;2023-05-17T00:38:34;100665.41;;;24.96;30.61
6453;BME280;3259;51.080;13.712;2023-05-17T00:41:24;100662.47;;;24.91;30.69
6453;BME280;3259;51.080;13.712;2023-05-17T00:44:14;100661.81;;;24.89;30.57
6453;BME280;3259;51.080;13.712;2023-05-17T00:47:03;100662.63;;;24.89;30.83
6453;BME280;3259;51.080;13.712;2023-05-17T00:49:52;100653.06;;;24.95;30.39
6453;BME280;3259;51.080;13.712;2023-05-17T00:52:44;100651.41;;;24.94;30.77
6453;BME280;3259;51.080;13.712;2023-05-17T00:55:33;100648.94;;;24.92;30.48
6453;BME280;3259;51.080;13.712;2023-05-17T00:58:23;100653.44;;;24.92;30.67
6453;BME280;3259;51.080;13.712;2023-05-17T01:01:12;100666.53;;;24.87;30.51
6453;BME280;3259;51.080;13.712;2023-05-17T01:04:01;100666.53;;;24.87;30.38
6453;BME280;3259;51.080;13.712;2023-05-17T01:06:50;100658.53;;;24.87;30.39
6453;BME280;3259;51.080;13.712;2023-05-17T01:09:39;100659.16;;;24.89;30.10
6453;BME280;3259;51.080;13.712;2023-05-17T01:12:40;100664.88;;;24.86;30.21
6453;BME280;3259;51.080;13.712;2023-05-17T01:15:40;100667.00;;;24.90;30.51
6453;BME280;3259;51.080;13.712;2023-05-17T01:18:35;100673.97;;;24.91;30.12
6453;BME280;3259;51.080;13.712;2023-05-17T01:21:35;100672.56;;;24.95;30.25
6453;BME280;3259;51.080;13.712;2023-05-17T01:24:36;100672.56;;;24.95;30.25
6453;BME280;3259;51.080;13.712;2023-05-17T01:27:35;100665.75;;;24.93;29.92
6453;BME280;3259;51.080;13.712;2023-05-17T01:30:27;100671.72;;;24.95;29.97
6453;BME280;3259;51.080;13.712;2023-05-17T01:33:17;100686.22;;;24.86;29.92
6453;BME280;3259;51.080;13.712;2023-05-17T01:36:07;100683.91;;;24.83;30.25
6453;BME280;3259;51.080;13.712;2023-05-17T01:38:56;100683.81;;;24.91;30.14
6453;BME280;3259;51.080;13.712;2023-05-17T01:41:52;100686.66;;;24.89;29.99
6453;BME280;3259;51.080;13.712;2023-05-17T01:44:47;100689.91;;;24.85;30.12
6453;BME280;3259;51.080;13.712;2023-05-17T01:47:42;100689.91;;;24.85;30.31
6453;BME280;3259;51.080;13.712;2023-05-17T01:50:33;100699.19;;;24.89;29.94
6453;BME280;3259;51.080;13.712;2023-05-17T01:53:28;100683.28;;;24.81;29.95
6453;BME280;3259;51.080;13.712;2023-05-17T01:56:19;100692.69;;;24.77;30.07
6453;BME280;3259;51.080;13.712;2023-05-17T01:59:10;100696.00;;;24.79;30.24
6453;BME280;3259;51.080;13.712;2023-05-17T02:02:04;100692.31;;;24.80;29.82
6453;BME280;3259;51.080;13.712;2023-05-17T02:04:55;100701.22;;;24.87;29.53
6453;BME280;3259;51.080;13.712;2023-05-17T02:07:44;100701.84;;;24.89;29.41
6453;BME280;3259;51.080;13.712;2023-05-17T02:10:33;100696.00;;;24.79;30.09
6453;BME280;3259;51.080;13.712;2023-05-17T02:13:21;100700.31;;;24.80;30.11
6453;BME280;3259;51.080;13.712;2023-05-17T02:16:10;100704.69;;;24.87;29.91
6453;BME280;3259;51.080;13.712;2023-05-17T02:19:00;100700.94;;;24.82;29.80
6453;BME280;3259;51.080;13.712;2023-05-17T02:21:49;100696.63;;;24.81;29.82
6453;BME280;3259;51.080;13.712;2023-05-17T02:24:37;100693.22;;;24.87;29.55
6453;BME280;3259;51.080;13.712;2023-05-17T02:27:26;100695.13;;;24.93;29.42
6453;BME280;3259;51.080;13.712;2023-05-17T02:30:15;100689.53;;;24.88;29.44
6453;BME280;3259;51.080;13.712;2023-05-17T02:33:04;100698.94;;;24.84;29.33
6453;BME280;3259;51.080;13.712;2023-05-17T02:35:54;100705.94;;;24.85;29.80
6453;BME280;3259;51.080;13.712;2023-05-17T02:38:43;100707.03;;;24.76;29.96
6453;BME280;3259;51.080;13.712;2023-05-17T02:41:31;100716.69;;;24.77;29.92
6453;BME280;3259;51.080;13.712;2023-05-17T02:44:20;100714.75;;;24.71;29.69
6453;BME280;3259;51.080;13.712;2023-05-17T02:47:08;100725.34;;;24.64;29.73
6453;BME280;3259;51.080;13.712;2023-05-17T02:49:57;100729.88;;;24.64;30.15
6453;BME280;3259;51.080;13.712;2023-05-17T02:52:48;100729.88;;;24.64;29.86
6453;BME280;3259;51.080;13.712;2023-05-17T02:55:37;100735.13;;;24.57;29.96
6453;BME280;3259;51.080;13.712;2023-05-17T02:58:25;100723.91;;;24.62;30.03
6453;BME280;3259;51.080;13.712;2023-05-17T03:01:14;100732.56;;;24.64;29.94
6453;BME280;3259;51.080;13.712;2023-05-17T03:04:03;100743.41;;;24.62;30.35
6453;BME280;3259;51.080;13.712;2023-05-17T03:06:52;100750.66;;;24.54;30.53
6453;BME280;3259;51.080;13.712;2023-05-17T03:09:42;100748.94;;;24.61;30.36
6453;BME280;3259;51.080;13.712;2023-05-17T03:12:31;100747.00;;;24.55;30.52
6453;BME280;3259;51.080;13.712;2023-05-17T03:15:20;100751.94;;;24.58;30.45
6453;BME280;3259;51.080;13.712;2023-05-17T03:18:09;100752.50;;;24.53;30.30
6453;BME280;3259;51.080;13.712;2023-05-17T03:20:58;100752.31;;;24.55;30.30
6453;BME280;3259;51.080;13.712;2023-05-17T03:23:46;100754.81;;;24.56;30.32
6453;BME280;3259;51.080;13.712;2023-05-17T03:26:36;100756.47;;;24.57;30.28
6453;BME280;3259;51.080;13.712;2023-05-17T03:29:25;100756.47;;;24.57;30.33
6453;BME280;3259;51.080;13.712;2023-05-17T03:32:14;100761.59;;;24.59;30.07
6453;BME280;3259;51.080;13.712;2023-05-17T03:35:03;100759.69;;;24.53;30.30
6453;BME280;3259;51.080;13.712;2023-05-17T03:37:52;100763.00;;;24.55;30.63
6453;BME280;3259;51.080;13.712;2023-05-17T03:40:41;100761.59;;;24.59;30.11
6453;BME280;3259;51.080;13.712;2023-05-17T03:43:31;100759.78;;;24.59;30.23
6453;BME280;3259;51.080;13.712;2023-05-17T03:46:20;100772.94;;;24.61;30.25
6453;BME280;3259;51.080;13.712;2023-05-17T03:49:08;100772.94;;;24.61;30.06
6453;BME280;3259;51.080;13.712;2023-05-17T03:51:58;100776.25;;;24.63;30.20
6453;BME280;3259;51.080;13.712;2023-05-17T03:54:47;100782.84;;;24.67;29.85
6453;BME280;3259;51.080;13.712;2023-05-17T03:57:35;100790.22;;;24.65;30.19
6453;BME280;3259;51.080;13.712;2023-05-17T04:00:25;100788.56;;;24.64;29.82
6453;BME280;3259;51.080;13.712;2023-05-17T04:03:15;100792.50;;;24.53;30.21
6453;BME280;3259;51.080;13.712;2023-05-17T04:06:06;100788.84;;;24.54;30.30
6453;BME280;3259;51.080;13.712;2023-05-17T04:08:55;100791.31;;;24.56;30.33
6453;BME280;3259;51.080;13.712;2023-05-17T04:11:45;100790.31;;;24.71;29.87
6453;BME280;3259;51.080;13.712;2023-05-17T04:14:34;100795.09;;;24.90;29.68
6453;BME280;3259;51.080;13.712;2023-05-17T04:17:24;100793.53;;;24.81;29.66
6453;BME280;3259;51.080;13.712;2023-05-17T04:20:13;100794.25;;;24.90;29.66
6453;BME280;3259;51.080;13.712;2023-05-17T04:23:01;100795.50;;;24.94;29.46
6453;BME280;3259;51.080;13.712;2023-05-17T04:25:50;100795.50;;;24.94;29.26
6453;BME280;3259;51.080;13.712;2023-05-17T04:28:39;100804.53;;;24.93;29.32
6453;BME280;3259;51.080;13.712;2023-05-17T04:31:30;100798.00;;;24.95;28.95
6453;BME280;3259;51.080;13.712;2023-05-17T04:34:20;100799.56;;;24.90;29.20
6453;BME280;3259;51.080;13.712;2023-05-17T04:37:11;100796.66;;;24.85;29.69
6453;BME280;3259;51.080;13.712;2023-05-17T04:39:59;100795.34;;;24.81;29.24
6453;BME280;3259;51.080;13.712;2023-05-17T04:42:48;100786.25;;;24.75;29.27
6453;BME280;3259;51.080;13.712;2023-05-17T04:45:37;100796.66;;;24.85;29.24
6453;BME280;3259;51.080;13.712;2023-05-17T04:48:29;100799.03;;;24.80;29.19
6453;BME280;3259;51.080;13.712;2023-05-17T04:51:20;100810.25;;;24.90;29.03
6453;BME280;3259;51.080;13.712;2023-05-17T04:54:09;100815.03;;;24.94;28.91
6453;BME280;3259;51.080;13.712;2023-05-17T04:56:58;100818.25;;;24.75;29.19
6453;BME280;3259;51.080;13.712;2023-05-17T04:59:46;100825.00;;;24.86;29.16
6453;BME280;3259;51.080;13.712;2023-05-17T05:02:35;100831.59;;;24.90;29.00
6453;BME280;3259;51.080;13.712;2023-05-17T05:05:24;100838.22;;;24.94;28.79
6453;BME280;3259;51.080;13.712;2023-05-17T05:08:15;100835.94;;;24.91;28.89
6453;BME280;3259;51.080;13.712;2023-05-17T05:11:04;100819.56;;;24.79;29.11
6453;BME280;3259;51.080;13.712;2023-05-17T05:13:52;100822.78;;;24.75;29.32
6453;BME280;3259;51.080;13.712;2023-05-17T05:16:41;100819.19;;;24.68;28.99
6453;BME280;3259;51.080;13.712;2023-05-17T05:19:30;100821.69;;;24.69;29.54
6453;BME280;3259;51.080;13.712;2023-05-17T05:22:19;100809.16;;;24.70;29.18
6453;BME280;3259;51.080;13.712;2023-05-17T05:25:09;100820.19;;;24.67;29.21
6453;BME280;3259;51.080;13.712;2023-05-17T05:27:58;100822.22;;;24.65;29.59
6453;BME280;3259;51.080;13.712;2023-05-17T05:30:47;100822.59;;;24.62;29.33
6453;BME280;3259;51.080;13.712;2023-05-17T05:33:35;100831.31;;;24.56;29.69
6453;BME280;3259;51.080;13.712;2023-05-17T05:36:24;100838.53;;;24.55;29.90
6453;BME280;3259;51.080;13.712;2023-05-17T05:39:13;100839.69;;;24.53;29.52
6453;BME280;3259;51.080;13.712;2023-05-17T05:42:04;100832.50;;;24.53;29.77
6453;BME280;3259;51.080;13.712;2023-05-17T05:44:55;100834.00;;;24.56;29.80
6453;BME280;3259;51.080;13.712;2023-05-17T05:47:44;100840.50;;;24.53;29.79
6453;BME280;3259;51.080;13.712;2023-05-17T05:50:33;100840.03;;;24.50;30.20
6453;BME280;3259;51.080;13.712;2023-05-17T05:53:22;100853.56;;;24.48;29.94
6453;BME280;3259;51.080;13.712;2023-05-17T05:56:10;100846.09;;;24.44;29.89
6453;BME280;3259;51.080;13.712;2023-05-17T05:59:00;100857.69;;;24.51;29.80
6453;BME280;3259;51.080;13.712;2023-05-17T06:01:49;100856.03;;;24.50;30.28
6453;BME280;3259;51.080;13.712;2023-05-17T06:04:38;100870.41;;;24.49;30.59
6453;BME280;3259;51.080;13.712;2023-05-17T06:07:32;100878.41;;;24.49;30.34
6453;BME280;3259;51.080;13.712;2023-05-17T06:10:20;100880.13;;;24.42;30.78
6453;BME280;3259;51.080;13.712;2023-05-17T06:13:10;100880.69;;;24.52;30.36
6453;BME280;3259;51.080;13.712;2023-05-17T06:16:00;100874.41;;;24.45;31.01
6453;BME280;3259;51.080;13.712;2023-05-17T06:18:49;100882.78;;;24.42;31.05
6453;BME280;3259;51.080;13.712;2023-05-17T06:21:38;100880.75;;;24.44;30.77
6453;BME280;3259;51.080;13.712;2023-05-17T06:24:28;100887.09;;;24.43;31.08
6453;BME280;3259;51.080;13.712;2023-05-17T06:27:16;100890.41;;;24.45;30.92
6453;BME280;3259;51.080;13.712;2023-05-17T06:30:06;100892.28;;;24.44;30.67
6453;BME280;3259;51.080;13.712;2023-05-17T06:32:56;100892.06;;;24.46;30.94
6453;BME280;3259;51.080;13.712;2023-05-17T06:35:45;100891.72;;;24.49;30.73
6453;BME280;3259;51.080;13.712;2023-05-17T06:38:40;100891.72;;;24.49;30.73
6453;BME280;3259;51.080;13.712;2023-05-17T06:41:30;100890.06;;;24.48;31.03
6453;BME280;3259;51.080;13.712;2023-05-17T06:44:20;100891.72;;;24.49;31.22
6453;BME280;3259;51.080;13.712;2023-05-17T06:47:09;100895.84;;;24.51;31.16
6453;BME280;3259;51.080;13.712;2023-05-17T06:49:59;100890.72;;;24.50;31.15
6453;BME280;3259;51.080;13.712;2023-05-17T06:52:48;100901.56;;;24.48;31.39
6453;BME280;3259;51.080;13.712;2023-05-17T06:55:37;100900.75;;;24.48;31.65
6453;BME280;3259;51.080;13.712;2023-05-17T06:58:26;100905.72;;;24.51;31.63
6453;BME280;3259;51.080;13.712;2023-05-17T07:01:14;100897.31;;;24.62;31.21
6453;BME280;3259;51.080;13.712;2023-05-17T07:04:04;100907.06;;;24.47;31.97
6453;BME280;3259;51.080;13.712;2023-05-17T07:06:54;100903.53;;;24.54;31.33
6453;BME280;3259;51.080;13.712;2023-05-17T07:09:43;100904.28;;;24.40;31.89
6453;BME280;3259;51.080;13.712;2023-05-17T07:12:38;100905.50;;;24.38;31.79
6453;BME280;3259;51.080;13.712;2023-05-17T07:15:29;100905.13;;;24.41;31.46
6453;BME280;3259;51.080;13.712;2023-05-17T07:18:18;100909.63;;;24.40;31.64
6453;BME280;3259;51.080;13.712;2023-05-17T07:21:07;100901.63;;;24.40;31.36
6453;BME280;3259;51.080;13.712;2023-05-17T07:23:57;100907.53;;;24.36;31.41
6453;BME280;3259;51.080;13.712;2023-05-17T07:26:46;100905.50;;;24.38;31.33
6453;BME280;3259;51.080;13.712;2023-05-17T07:29:38;100902.19;;;24.36;31.56
6453;BME280;3259;51.080;13.712;2023-05-17T07:32:28;100908.31;;;24.36;31.78
6453;BME280;3259;51.080;13.712;2023-05-17T07:35:18;100905.03;;;24.34;32.07
6453;BME280;3259;51.080;13.712;2023-05-17T07:38:07;100912.84;;;24.36;31.85
6453;BME280;3259;51.080;13.712;2023-05-17T07:40:58;100903.63;;;24.38;31.19
6453;BME280;3259;51.080;13.712;2023-05-17T07:43:47;100905.66;;;24.36;31.54
6453;BME280;3259;51.080;13.712;2023-05-17T07:46:36;100907.53;;;24.36;31.62
6453;BME280;3259;51.080;13.712;2023-05-17T07:49:29;100915.69;;;24.34;31.42
6453;BME280;3259;51.080;13.712;2023-05-17T07:52:20;100910.72;;;24.31;31.43
6453;BME280;3259;51.080;13.712;2023-05-17T07:55:09;100911.91;;;24.29;31.29
6453;BME280;3259;51.080;13.712;2023-05-17T07:58:00;100910.53;;;24.33;31.53
6453;BME280;3259;51.080;13.712;2023-05-17T08:00:50;100920.53;;;24.31;31.62
6453;BME280;3259;51.080;13.712;2023-05-17T08:03:39;100918.53;;;24.33;31.16
6453;BME280;3259;51.080;13.712;2023-05-17T08:06:34;100918.03;;;24.29;30.84
6453;BME280;3259;51.080;13.712;2023-05-17T08:09:23;100915.09;;;24.24;31.09
6453;BME280;3259;51.080;13.712;2023-05-17T08:12:12;100915.09;;;24.24;30.88
6453;BME280;3259;51.080;13.712;2023-05-17T08:15:03;100930.25;;;24.24;30.80
6453;BME280;3259;51.080;13.712;2023-05-17T08:17:51;100929.44;;;24.23;30.88
6453;BME280;3259;51.080;13.712;2023-05-17T08:20:40;100930.63;;;24.21;30.56
6453;BME280;3259;51.080;13.712;2023-05-17T08:23:29;100924.28;;;24.22;31.17
6453;BME280;3259;51.080;13.712;2023-05-17T08:26:18;100928.59;;;24.23;30.85
6453;BME280;3259;51.080;13.712;2023-05-17T08:29:08;100919.13;;;24.20;30.79
6453;BME280;3259;51.080;13.712;2023-05-17T08:31:59;100925.28;;;24.21;30.54
6453;BME280;3259;51.080;13.712;2023-05-17T08:34:48;100919.13;;;24.20;30.53
6453;BME280;3259;51.080;13.712;2023-05-17T08:37:36;100918.28;;;24.20;30.42
6453;BME280;3259;51.080;13.712;2023-05-17T08:40:26;100921.59;;;24.22;30.31
6453;BME280;3259;51.080;13.712;2023-05-17T08:43:16;100924.63;;;24.19;30.27
6453;BME280;3259;51.080;13.712;2023-05-17T08:46:05;100923.34;;;24.15;29.96
6453;BME280;3259;51.080;13.712;2023-05-17T08:48:57;100915.34;;;24.15;30.30
6453;BME280;3259;51.080;13.712;2023-05-17T08:51:48;100917.19;;;24.14;29.88
6453;BME280;3259;51.080;13.712;2023-05-17T08:54:38;100924.69;;;24.11;30.15
6453;BME280;3259;51.080;13.712;2023-05-17T08:57:30;100921.75;;;24.06;30.20
6453;BME280;3259;51.080;13.712;2023-05-17T09:00:20;100920.09;;;24.05;30.39
6453;BME280;3259;51.080;13.712;2023-05-17T09:03:15;100909.78;;;24.02;30.38
6453;BME280;3259;51.080;13.712;2023-05-17T09:06:07;100916.41;;;24.06;30.37
6453;BME280;3259;51.080;13.712;2023-05-17T09:08:57;100915.03;;;24.10;30.38
6453;BME280;3259;51.080;13.712;2023-05-17T09:11:47;100916.69;;;24.11;30.40
6453;BME280;3259;51.080;13.712;2023-05-17T09:14:36;100904.22;;;24.11;30.68
6453;BME280;3259;51.080;13.712;2023-05-17T09:17:24;100907.03;;;24.10;31.29
6453;BME280;3259;51.080;13.712;2023-05-17T09:20:21;100919.34;;;24.11;30.79
6453;BME280;3259;51.080;13.712;2023-05-17T09:23:24;100931.69;;;24.12;30.88
6453;BME280;3259;51.080;13.712;2023-05-17T09:26:13;100922.97;;;24.18;30.80
6453;BME280;3259;51.080;13.712;2023-05-17T09:29:07;100923.81;;;24.18;30.71
6453;BME280;3259;51.080;13.712;2023-05-17T09:32:11;100933.00;;;24.16;31.31
6453;BME280;3259;51.080;13.712;2023-05-17T09:35:00;100921.00;;;24.12;30.91
6453;BME280;3259;51.080;13.712;2023-05-17T09:37:48;100931.69;;;24.12;30.87
6453;BME280;3259;51.080;13.712;2023-05-17T09:40:39;100941.88;;;24.08;31.21
6453;BME280;3259;51.080;13.712;2023-05-17T09:43:29;100939.03;;;24.10;30.85
6453;BME280;3259;51.080;13.712;2023-05-17T09:46:18;100943.34;;;24.11;30.29
6453;BME280;3259;51.080;13.712;2023-05-17T09:49:07;100957.69;;;24.10;30.04
6453;BME280;3259;51.080;13.712;2023-05-17T09:51:56;100954.72;;;24.05;30.30
6453;BME280;3259;51.080;13.712;2023-05-17T09:54:52;100949.41;;;24.05;29.91
6453;BME280;3259;51.080;13.712;2023-05-17T09:57:42;100952.44;;;24.02;30.20
6453;BME280;3259;51.080;13.712;2023-05-17T10:00:32;100953.44;;;24.01;30.37
6453;BME280;3259;51.080;13.712;2023-05-17T10:03:21;100957.75;;;24.02;30.04
6453;BME280;3259;51.080;13.712;2023-05-17T10:06:11;100958.09;;;23.99;30.18
6453;BME280;3259;51.080;13.712;2023-05-17T10:09:21;100951.94;;;23.98;30.16
6453;BME280;3259;51.080;13.712;2023-05-17T10:12:11;100945.78;;;23.98;30.29
6453;BME280;3259;51.080;13.712;2023-05-17T10:15:04;100956.09;;;24.01;29.88
6453;BME280;3259;51.080;13.712;2023-05-17T10:17:54;100956.09;;;24.01;30.29
6453;BME280;3259;51.080;13.712;2023-05-17T10:20:43;100957.94;;;24.00;30.23
6453;BME280;3259;51.080;13.712;2023-05-17T10:23:32;100950.44;;;23.96;30.53
6453;BME280;3259;51.080;13.712;2023-05-17T10:26:21;100948.44;;;23.98;30.42
6453;BME280;3259;51.080;13.712;2023-05-17T10:29:11;100954.41;;;24.00;30.12
6453;BME280;3259;51.080;13.712;2023-05-17T10:32:03;100960.09;;;23.97;29.55
6453;BME280;3259;51.080;13.712;2023-05-17T10:34:53;100950.66;;;23.94;29.25
6453;BME280;3259;51.080;13.712;2023-05-17T10:37:55;100948.16;;;23.93;28.84
6453;BME280;3259;51.080;13.712;2023-05-17T10:40:45;100947.13;;;23.94;28.98
6453;BME280;3259;51.080;13.712;2023-05-17T10:43:36;100950.66;;;23.94;28.88
6453;BME280;3259;51.080;13.712;2023-05-17T10:46:28;100955.78;;;23.96;28.99
6453;BME280;3259;51.080;13.712;2023-05-17T10:49:19;100962.13;;;23.95;29.20
6453;BME280;3259;51.080;13.712;2023-05-17T10:52:11;100964.13;;;23.93;29.48
6453;BME280;3259;51.080;13.712;2023-05-17T10:55:00;100954.28;;;23.93;29.43
6453;BME280;3259;51.080;13.712;2023-05-17T10:58:07;100960.81;;;23.91;28.88
6453;BME280;3259;51.080;13.712;2023-05-17T11:00:56;100944.84;;;23.91;29.11
6453;BME280;3259;51.080;13.712;2023-05-17T11:03:47;100936.66;;;23.92;28.89
6453;BME280;3259;51.080;13.712;2023-05-17T11:06:39;100945.13;;;23.96;29.15
6453;BME280;3259;51.080;13.712;2023-05-17T11:09:31;100936.13;;;23.97;28.91
6453;BME280;3259;51.080;13.712;2023-05-17T11:12:37;100943.63;;;23.93;28.66
6453;BME280;3259;51.080;13.712;2023-05-17T11:15:32;100959.47;;;23.95;28.36
6453;BME280;3259;51.080;13.712;2023-05-17T11:18:21;100948.97;;;23.93;28.23
6453;BME280;3259;51.080;13.712;2023-05-17T11:21:19;100951.34;;;23.88;28.39
6453;BME280;3259;51.080;13.712;2023-05-17T11:24:12;100947.50;;;23.91;28.41
6453;BME280;3259;51.080;13.712;2023-05-17T11:27:04;100944.84;;;23.91;28.34
6453;BME280;3259;51.080;13.712;2023-05-17T11:29:53;100936.53;;;23.86;28.53
6453;BME280;3259;51.080;13.712;2023-05-17T11:32:46;100929.53;;;23.85;28.46
6453;BME280;3259;51.080;13.712;2023-05-17T11:35:36;100923.53;;;23.91;28.30
6453;BME280;3259;51.080;13.712;2023-05-17T11:38:26;100915.69;;;23.89;28.52
6453;BME280;3259;51.080;13.712;2023-05-17T11:41:21;100930.19;;;23.87;27.88
6453;BME280;3259;51.080;13.712;2023-05-17T11:44:13;100923.41;;;23.84;27.96
6453;BME280;3259;51.080;13.712;2023-05-17T11:47:03;100934.06;;;23.84;28.09
6453;BME280;3259;51.080;13.712;2023-05-17T11:49:55;100925.88;;;23.86;27.74
6453;BME280;3259;51.080;13.712;2023-05-17T11:52:47;100920.88;;;23.83;27.88
6453;BME280;3259;51.080;13.712;2023-05-17T11:55:41;100918.38;;;23.81;28.08
6453;BME280;3259;51.080;13.712;2023-05-17T11:58:33;100921.53;;;23.85;28.00
6453;BME280;3259;51.080;13.712;2023-05-17T12:01:22;100931.53;;;23.83;28.07
6453;BME280;3259;51.080;13.712;2023-05-17T12:04:12;100918.88;;;23.85;28.12
6453;BME280;3259;51.080;13.712;2023-05-17T12:07:03;100910.53;;;23.88;28.15
6453;BME280;3259;51.080;13.712;2023-05-17T12:09:52;100904.88;;;23.83;27.97
6453;BME280;3259;51.080;13.712;2023-05-17T12:12:40;100909.06;;;23.85;28.08
6453;BME280;3259;51.080;13.712;2023-05-17T12:15:31;100917.22;;;23.84;27.84
6453;BME280;3259;51.080;13.712;2023-05-17T12:18:20;100918.72;;;23.86;28.21
6453;BME280;3259;51.080;13.712;2023-05-17T12:21:11;100912.22;;;23.89;28.02
6453;BME280;3259;51.080;13.712;2023-05-17T12:24:01;100916.19;;;23.93;28.30
6453;BME280;3259;51.080;13.712;2023-05-17T12:26:51;100922.78;;;23.97;28.13
6453;BME280;3259;51.080;13.712;2023-05-17T12:29:39;100926.59;;;24.02;27.95
6453;BME280;3259;51.080;13.712;2023-05-17T12:32:29;100918.44;;;24.04;28.53
6453;BME280;3259;51.080;13.712;2023-05-17T12:35:18;100926.09;;;23.99;28.44
6453;BME280;3259;51.080;13.712;2023-05-17T12:38:07;100918.59;;;24.02;28.17
6453;BME280;3259;51.080;13.712;2023-05-17T12:40:59;100927.56;;;24.09;27.80
6453;BME280;3259;51.080;13.712;2023-05-17T12:43:48;100931.44;;;23.99;27.84
6453;BME280;3259;51.080;13.712;2023-05-17T12:46:46;100945.38;;;24.09;28.15
6453;BME280;3259;51.080;13.712;2023-05-17T12:49:51;100936.56;;;24.08;28.13
6453;BME280;3259;51.080;13.712;2023-05-17T12:52:40;100940.88;;;24.09;27.90
6453;BME280;3259;51.080;13.712;2023-05-17T12:55:35;100938.00;;;24.11;27.80
6453;BME280;3259;51.080;13.712;2023-05-17T12:58:24;100945.69;;;24.14;27.76
6453;BME280;3259;51.080;13.712;2023-05-17T13:01:12;100941.66;;;24.18;27.94
6453;BME280;3259;51.080;13.712;2023-05-17T13:04:02;100935.47;;;23.95;27.92
6453;BME280;3259;51.080;13.712;2023-05-17T13:06:56;100950.16;;;23.91;28.06
6453;BME280;3259;51.080;13.712;2023-05-17T13:09:47;100941.22;;;23.76;27.46
6453;BME280;3259;51.080;13.712;2023-05-17T13:12:36;100933.97;;;23.62;27.17
6453;BME280;3259;51.080;13.712;2023-05-17T13:15:29;100933.31;;;23.60;27.90
6453;BME280;3259;51.080;13.712;2023-05-17T13:18:21;100934.31;;;23.59;27.66
6453;BME280;3259;51.080;13.712;2023-05-17T13:21:10;100932.03;;;23.48;27.18
6453;BME280;3259;51.080;13.712;2023-05-17T13:24:01;100939.38;;;23.46;27.49
6453;BME280;3259;51.080;13.712;2023-05-17T13:26:49;100944.78;;;23.30;27.33
6453;BME280;3259;51.080;13.712;2023-05-17T13:29:40;100939.13;;;23.25;27.57
6453;BME280;3259;51.080;13.712;2023-05-17T13:32:30;100947.13;;;23.25;27.68
6453;BME280;3259;51.080;13.712;2023-05-17T13:35:19;100939.78;;;23.27;27.46
6453;BME280;3259;51.080;13.712;2023-05-17T13:38:07;100937.81;;;23.29;27.24
6453;BME280;3259;51.080;13.712;2023-05-17T13:40:57;100932.81;;;23.26;26.99
6453;BME280;3259;51.080;13.712;2023-05-17T13:43:46;100937.97;;;23.20;26.82
6453;BME280;3259;51.080;13.712;2023-05-17T13:46:35;100941.47;;;23.12;27.11
6453;BME280;3259;51.080;13.712;2023-05-17T13:49:24;100946.16;;;23.10;27.56
6453;BME280;3259;51.080;13.712;2023-05-17T13:52:14;100947.47;;;23.14;27.56
6453;BME280;3259;51.080;13.712;2023-05-17T13:55:05;100945.16;;;23.19;27.77
6453;BME280;3259;51.080;13.712;2023-05-17T13:57:55;100943.44;;;23.26;27.92
6453;BME280;3259;51.080;13.712;2023-05-17T14:00:45;100948.44;;;23.29;27.26
6453;BME280;3259;51.080;13.712;2023-05-17T14:03:36;100943.44;;;23.26;26.84
6453;BME280;3259;51.080;13.712;2023-05-17T14:06:24;100935.47;;;23.26;27.19
6453;BME280;3259;51.080;13.712;2023-05-17T14:09:13;100943.94;;;23.30;27.22
6453;BME280;3259;51.080;13.712;2023-05-17T14:12:07;100936.88;;;23.44;27.48
6453;BME280;3259;51.080;13.712;2023-05-17T14:14:59;100947.22;;;23.47;27.69
6453;BME280;3259;51.080;13.712;2023-05-17T14:17:48;100953.44;;;23.70;27.88
6453;BME280;3259;51.080;13.712;2023-05-17T14:20:37;100952.84;;;23.91;27.50
6453;BME280;3259;51.080;13.712;2023-05-17T14:23:28;100957.75;;;24.02;27.64
6453;BME280;3259;51.080;13.712;2023-05-17T14:26:19;100957.16;;;23.92;27.76
6453;BME280;3259;51.080;13.712;2023-05-17T14:29:09;100961.75;;;23.98;27.28
6453;BME280;3259;51.080;13.712;2023-05-17T14:32:02;100960.59;;;24.23;27.29
6453;BME280;3259;51.080;13.712;2023-05-17T14:34:51;100953.16;;;24.18;27.64
6453;BME280;3259;51.080;13.712;2023-05-17T14:37:40;100953.97;;;24.19;27.88
6453;BME280;3259;51.080;13.712;2023-05-17T14:40:29;100950.28;;;24.20;27.59
6453;BME280;3259;51.080;13.712;2023-05-17T14:43:18;100964.63;;;24.19;27.57
6453;BME280;3259;51.080;13.712;2023-05-17T14:46:07;100957.91;;;24.23;26.89
6453;BME280;3259;51.080;13.712;2023-05-17T14:49:00;100962.84;;;24.34;26.63
6453;BME280;3259;51.080;13.712;2023-05-17T14:51:49;100965.09;;;24.45;26.47
6453;BME280;3259;51.080;13.712;2023-05-17T14:54:37;100959.47;;;24.40;26.35
6453;BME280;3259;51.080;13.712;2023-05-17T14:57:29;100953.72;;;24.51;26.78
6453;BME280;3259;51.080;13.712;2023-05-17T15:00:19;100961.78;;;24.43;26.63
6453;BME280;3259;51.080;13.712;2023-05-17T15:03:08;100960.13;;;24.42;26.17